Аэропорт: Витебск Восточный. Витебск

ICAO: UMII

METAR:
2018/05/20 16:00
UMII 201600Z 01004MPS 9999 SCT040 16/04 Q1022 R05/CLRD// NOSIG
METAR:
2018/01/28 15:24
TAF TAF UMII 281405Z 2815/2924 19004G09MPS 2000 SN BR OVC005 
      TEMPO 2815/2824 0500 FZDZ FZFG VV002